Time;durP1;ratioP1;P1;durP2;ratioP2;P2;SDS_P1;SDS_P2;PMS_P1;PMS_P2;Temp;Humidity;BMP_temperature;BMP_pressure;BME280_temperature;BME280_humidity;BME280_pressure;Samples;Min_cycle;Max_cycle;Signal;HPM_P1;HPM_P2
2022/12/09 00:00:38;;;;;;;;;39.50;31.50;;;;;5.79;68.59;100343.22;5098212;27;45577;-52
2022/12/09 00:03:03;;;;;;;;;39.25;33.75;;;;;5.79;68.17;100340.56;5098775;27;45310;-52
2022/12/09 00:05:29;;;;;;;;;42.25;30.25;;;;;5.80;68.48;100351.00;5098835;27;45300;-52
2022/12/09 00:07:54;;;;;;;;;40.25;26.25;;;;;5.76;68.23;100342.50;5098388;27;46119;-54
2022/12/09 00:10:19;;;;;;;;;40.00;31.50;;;;;5.79;68.45;100337.94;5098449;27;45433;-51
2022/12/09 00:12:44;;;;;;;;;43.25;33.00;;;;;5.78;68.99;100328.34;5098428;27;45335;-52
2022/12/09 00:15:10;;;;;;;;;31.75;26.25;;;;;5.78;68.34;100331.00;5098533;27;45441;-53
2022/12/09 00:17:35;;;;;;;;;37.25;27.00;;;;;5.76;68.42;100331.94;5098177;27;47082;-53
2022/12/09 00:20:01;;;;;;;;;40.00;29.00;;;;;5.78;68.57;100334.47;5098333;27;45420;-53
2022/12/09 00:22:27;;;;;;;;;30.25;28.25;;;;;5.79;68.36;100337.94;5097064;27;45191;-54
2022/12/09 00:24:52;;;;;;;;;33.50;31.25;;;;;5.78;68.54;100325.72;5098436;27;45461;-60
2022/12/09 00:27:18;;;;;;;;;34.25;25.75;;;;;5.76;68.91;100328.47;5098062;27;46098;-52
2022/12/09 00:29:43;;;;;;;;;40.50;31.50;;;;;5.75;68.78;100332.91;5098193;27;45163;-53
2022/12/09 00:32:08;;;;;;;;;35.50;26.75;;;;;5.74;68.24;100323.31;5097980;27;45473;-52
2022/12/09 00:34:34;;;;;;;;;33.75;25.50;;;;;5.77;68.51;100327.47;5098356;27;45577;-50
2022/12/09 00:36:59;;;;;;;;;25.25;18.25;;;;;5.71;68.26;100318.28;5097794;27;45381;-55
2022/12/09 00:39:25;;;;;;;;;31.00;25.25;;;;;5.76;68.40;100320.53;5098086;27;45416;-54
2022/12/09 00:41:50;;;;;;;;;33.50;28.25;;;;;5.74;68.80;100312.75;5098134;27;45496;-54
2022/12/09 00:44:16;;;;;;;;;31.50;28.50;;;;;5.73;68.35;100319.00;5098220;27;45356;-52
2022/12/09 00:46:41;;;;;;;;;31.75;26.00;;;;;5.75;68.80;100322.34;5097940;27;45573;-53
2022/12/09 00:49:07;;;;;;;;;38.25;34.00;;;;;5.74;68.74;100310.13;5097691;27;45420;-55
2022/12/09 00:51:32;;;;;;;;;33.00;28.75;;;;;5.73;69.00;100316.38;5098136;27;45329;-52
2022/12/09 00:53:57;;;;;;;;;39.00;25.00;;;;;5.74;68.89;100318.03;5098079;27;45470;-50
2022/12/09 00:56:27;;;;;;;;;31.00;29.50;;;;;5.71;68.68;100306.88;5097820;27;45343;-54
2022/12/09 00:58:53;;;;;;;;;43.75;31.50;;;;;5.73;68.85;100311.09;5097858;27;45299;-54
2022/12/09 01:01:18;;;;;;;;;38.25;26.25;;;;;5.73;69.00;100304.94;5097781;27;45296;-53
2022/12/09 01:03:44;;;;;;;;;48.25;32.75;;;;;5.74;68.66;100296.91;5097973;27;45469;-54
2022/12/09 01:06:13;;;;;;;;;43.50;33.75;;;;;5.73;68.95;100300.53;5097769;27;46621;-53
2022/12/09 01:08:39;;;;;;;;;31.75;26.75;;;;;5.62;68.69;100274.19;5097214;27;45390;-55
2022/12/09 01:11:14;;;;;;;;;37.50;29.25;;;;;5.72;68.83;100290.91;5097575;27;45431;-55
2022/12/09 01:13:40;;;;;;;;;40.25;29.00;;;;;5.63;68.99;100282.94;5097811;27;45299;-53
2022/12/09 01:16:14;;;;;;;;;36.50;32.25;;;;;5.73;69.17;100292.63;5097339;27;45440;-54
2022/12/09 01:18:40;;;;;;;;;37.00;28.75;;;;;5.70;69.26;100284.94;5097647;27;45321;-55
2022/12/09 01:21:05;;;;;;;;;34.75;28.25;;;;;5.73;69.55;100291.75;5097488;27;45393;-53
2022/12/09 01:23:31;;;;;;;;;21.75;20.50;;;;;5.74;69.11;100291.66;5097561;27;45494;-52
2022/12/09 01:25:56;;;;;;;;;38.50;26.75;;;;;5.70;69.20;100289.38;5113208;27;47023;-54
2022/12/09 01:28:21;;;;;;;;;39.00;29.75;;;;;5.71;69.62;100291.88;5096091;27;45284;-54
2022/12/09 01:30:47;;;;;;;;;50.25;33.00;;;;;5.72;69.43;100303.28;5097424;27;45381;-55
2022/12/09 01:33:12;;;;;;;;;32.25;30.50;;;;;5.66;69.13;100283.53;5097558;27;45369;-53
2022/12/09 01:35:40;;;;;;;;;36.50;31.00;;;;;5.70;69.73;100287.59;5097145;27;46212;-53
2022/12/09 01:38:06;;;;;;;;;29.75;23.75;;;;;5.68;68.96;100292.13;5097400;27;45411;-57
2022/12/09 01:40:31;;;;;;;;;39.75;30.25;;;;;5.70;69.31;100286.75;5097216;27;45305;-49
2022/12/09 01:42:56;;;;;;;;;31.50;30.75;;;;;5.70;69.94;100300.78;5097470;27;45358;-58
2022/12/09 01:45:22;;;;;;;;;30.25;28.00;;;;;5.73;69.92;100289.09;5100473;27;45319;-50
2022/12/09 01:47:56;;;;;;;;;45.25;34.50;;;;;5.69;69.84;100285.91;5100675;27;45361;-51
2022/12/09 01:50:23;;;;;;;;;49.50;34.50;;;;;5.79;70.21;100295.72;5101127;27;45293;-55
2022/12/09 01:52:49;;;;;;;;;50.75;34.75;;;;;5.81;70.57;100285.84;5116620;27;45465;-52
2022/12/09 01:55:15;;;;;;;;;55.25;40.00;;;;;5.79;70.74;100293.06;5100298;27;46366;-52
2022/12/09 01:57:42;;;;;;;;;55.25;40.50;;;;;5.83;70.46;100290.03;5100746;27;45374;-50
2022/12/09 02:00:08;;;;;;;;;55.00;39.00;;;;;5.87;70.31;100294.09;5100448;27;45466;-49
2022/12/09 02:02:35;;;;;;;;;45.75;39.25;;;;;5.87;70.18;100301.19;5100641;27;45377;-53
2022/12/09 02:05:01;;;;;;;;;39.25;30.00;;;;;5.90;70.25;100290.34;5099219;27;46197;-50
2022/12/09 02:07:27;;;;;;;;;55.75;44.25;;;;;5.90;69.88;100290.34;5100287;27;45408;-53
2022/12/09 02:09:52;;;;;;;;;46.00;35.00;;;;;5.92;70.38;100289.31;5100478;27;45414;-50
2022/12/09 02:12:47;;;;;;;;;53.50;36.50;;;;;5.91;69.76;100292.06;5100696;27;45417;-52
2022/12/09 02:15:52;;;;;;;;;59.00;41.00;;;;;5.91;69.86;100289.41;5061979;27;45447;-48
2022/12/09 02:18:34;;;;;;;;;51.00;37.75;;;;;5.89;70.20;100288.69;5017400;28;45385;-49
2022/12/09 02:21:01;;;;;;;;;51.00;34.00;;;;;5.88;70.01;100281.75;5017170;28;45420;-51
2022/12/09 02:23:42;;;;;;;;;77.50;56.50;;;;;5.85;69.97;100281.97;5017376;28;45406;-55
2022/12/09 02:26:14;;;;;;;;;61.00;45.50;;;;;5.86;70.13;100279.25;5017016;28;46516;-53
2022/12/09 02:28:39;;;;;;;;;49.75;34.75;;;;;5.87;70.47;100278.25;5017220;28;45384;-49
2022/12/09 02:31:37;;;;;;;;;57.00;41.50;;;;;5.85;70.24;100274.91;5017049;28;45477;-49
2022/12/09 02:34:18;;;;;;;;;48.75;41.25;;;;;5.83;70.89;100270.72;5017456;28;45488;-48
2022/12/09 02:36:46;;;;;;;;;44.25;21.50;;;;;5.81;70.40;100272.66;5017148;28;46396;-48
2022/12/09 02:39:11;;;;;;;;;54.50;41.00;;;;;5.77;70.17;100272.06;5018545;28;45401;-54
2022/12/09 02:41:45;;;;;;;;;58.25;40.75;;;;;5.77;70.25;100274.69;5017770;28;45577;-49
2022/12/09 02:44:18;;;;;;;;;52.00;36.75;;;;;5.75;70.82;100266.91;5019428;28;45424;-52
2022/12/09 02:46:45;;;;;;;;;60.25;42.75;;;;;5.74;70.56;100262.63;5019645;28;46728;-54
2022/12/09 02:49:13;;;;;;;;;47.00;38.50;;;;;5.69;70.11;100256.06;5019430;28;45557;-51
2022/12/09 02:51:41;;;;;;;;;58.25;38.25;;;;;5.71;70.57;100259.38;5017418;28;45506;-48
2022/12/09 02:54:12;;;;;;;;;59.50;39.50;;;;;5.70;70.77;100258.56;5069795;27;45342;-53
2022/12/09 02:56:40;;;;;;;;;54.75;37.00;;;;;5.69;71.21;100263.97;5099811;27;45237;-51
2022/12/09 02:59:05;;;;;;;;;43.25;32.25;;;;;5.62;70.39;100246.97;5099752;27;45232;-51
2022/12/09 03:01:40;;;;;;;;;55.00;40.75;;;;;5.66;70.60;100262.41;5099878;27;45451;-49
2022/12/09 03:04:07;;;;;;;;;55.25;36.75;;;;;5.65;70.39;100266.03;5100119;27;45302;-53
2022/12/09 03:06:41;;;;;;;;;42.75;31.75;;;;;5.65;70.66;100275.75;5099788;27;46333;-53
2022/12/09 03:09:13;;;;;;;;;49.50;38.50;;;;;5.63;70.26;100273.22;5099512;27;45357;-54
2022/12/09 03:11:39;;;;;;;;;39.50;32.00;;;;;5.52;70.08;100265.34;5099559;27;45358;-53
2022/12/09 03:14:14;;;;;;;;;48.50;35.00;;;;;5.56;69.73;100272.03;5099675;27;45522;-54
2022/12/09 03:17:11;;;;;;;;;52.50;33.75;;;;;5.50;69.92;100265.47;5099349;27;45476;-53
2022/12/09 03:19:43;;;;;;;;;36.50;33.25;;;;;5.47;70.13;100257.78;5097868;27;45359;-54
2022/12/09 03:22:16;;;;;;;;;41.75;30.50;;;;;5.43;70.40;100255.53;5099346;27;45374;-54
2022/12/09 03:24:53;;;;;;;;;49.25;32.00;;;;;5.42;69.93;100259.16;5099544;27;45396;-52
2022/12/09 03:27:28;;;;;;;;;37.00;28.50;;;;;5.41;70.24;100265.38;5099374;27;45267;-51
2022/12/09 03:29:55;;;;;;;;;50.00;35.75;;;;;5.13;69.88;100211.41;5099427;27;45406;-54
2022/12/09 03:32:25;;;;;;;;;45.00;36.00;;;;;5.39;69.92;100262.03;5099310;27;45407;-53
2022/12/09 03:34:56;;;;;;;;;34.25;29.25;;;;;5.38;69.83;100255.09;5099647;27;45378;-52
2022/12/09 03:37:22;;;;;;;;;43.75;32.75;;;;;5.36;70.04;100252.59;5098830;27;46278;-54
2022/12/09 03:39:50;;;;;;;;;36.25;29.25;;;;;5.33;69.83;100259.91;5098772;27;45265;-50
2022/12/09 03:42:20;;;;;;;;;39.25;33.25;;;;;5.31;70.17;100256.53;5098892;27;45408;-54
2022/12/09 03:44:56;;;;;;;;;40.50;32.00;;;;;5.23;69.57;100241.34;5099254;27;45391;-53
2022/12/09 03:47:21;;;;;;;;;39.75;32.00;;;;;5.25;70.05;100242.88;5098603;27;46152;-52
2022/12/09 03:49:47;;;;;;;;;43.50;33.25;;;;;5.22;69.29;100239.66;5098717;27;45424;-54
2022/12/09 03:52:19;;;;;;;;;32.75;26.50;;;;;5.20;69.88;100242.44;5098979;27;45424;-54
2022/12/09 03:54:47;;;;;;;;;38.50;29.50;;;;;5.20;69.50;100238.97;5099126;27;45375;-55
2022/12/09 03:57:15;;;;;;;;;35.75;23.75;;;;;5.16;69.34;100243.66;5098622;27;46280;-52
2022/12/09 03:59:46;;;;;;;;;40.00;28.75;;;;;5.16;69.28;100237.53;5098605;27;45311;-54
2022/12/09 04:02:11;;;;;;;;;40.25;26.75;;;;;5.15;69.27;100241.97;5098982;27;45546;-53
2022/12/09 04:04:39;;;;;;;;;43.25;32.00;;;;;5.14;69.28;100237.66;5098981;27;45333;-54
2022/12/09 04:07:05;;;;;;;;;36.00;27.75;;;;;5.14;69.80;100232.41;5097900;27;45407;-53
2022/12/09 04:09:30;;;;;;;;;37.75;26.75;;;;;5.15;70.23;100231.44;5098300;27;45355;-54
2022/12/09 04:11:56;;;;;;;;;34.50;28.75;;;;;5.15;69.49;100226.16;5098845;27;45391;-54
2022/12/09 04:14:21;;;;;;;;;31.25;28.00;;;;;5.16;69.14;100217.28;5098869;27;45321;-54
2022/12/09 04:16:47;;;;;;;;;34.75;26.00;;;;;5.17;69.21;100213.66;5114092;27;46864;-54
2022/12/09 04:19:12;;;;;;;;;32.50;28.50;;;;;5.20;69.64;100223.13;5098515;27;45356;-53
2022/12/09 04:21:37;;;;;;;;;39.75;29.00;;;;;5.21;68.75;100222.19;5098644;27;45310;-55
2022/12/09 04:24:03;;;;;;;;;35.50;26.75;;;;;5.14;69.16;100208.66;5098628;27;45440;-54
2022/12/09 04:26:29;;;;;;;;;34.50;26.75;;;;;5.08;68.94;100203.03;5098316;27;46160;-54
2022/12/09 04:28:54;;;;;;;;;36.25;30.50;;;;;5.19;68.74;100217.03;5098197;27;45380;-51
2022/12/09 04:31:19;;;;;;;;;46.00;27.25;;;;;5.12;68.76;100207.94;5098368;27;45230;-53
2022/12/09 04:33:45;;;;;;;;;18.25;18.25;;;;;5.17;69.06;100218.09;5098832;27;45214;-53
2022/12/09 04:36:14;;;;;;;;;38.50;28.75;;;;;5.17;68.54;100210.19;5097780;27;46424;-52
2022/12/09 04:38:41;;;;;;;;;33.75;28.50;;;;;5.15;69.35;100220.88;5098059;27;45371;-53
2022/12/09 04:41:07;;;;;;;;;38.25;27.50;;;;;5.13;68.99;100216.69;5098056;27;45388;-52
2022/12/09 04:43:32;;;;;;;;;36.50;28.00;;;;;5.00;68.98;100203.66;5098115;27;45416;-52
2022/12/09 04:46:03;;;;;;;;;30.75;23.50;;;;;5.08;69.05;100224.97;5098160;27;45389;-54
2022/12/09 04:48:29;;;;;;;;;39.25;30.25;;;;;5.06;68.99;100220.81;5097662;27;45428;-54
2022/12/09 04:50:54;;;;;;;;;40.50;27.50;;;;;4.98;69.16;100214.34;5098066;27;45282;-54
2022/12/09 04:53:19;;;;;;;;;40.25;34.25;;;;;5.02;68.49;100224.66;5098221;27;45423;-53
2022/12/09 04:55:45;;;;;;;;;27.00;23.75;;;;;5.02;69.18;100214.09;5096414;27;47334;-54
2022/12/09 04:58:10;;;;;;;;;28.50;19.75;;;;;5.00;68.99;100214.19;5098073;27;45431;-55
2022/12/09 05:00:35;;;;;;;;;39.00;29.00;;;;;5.00;68.90;100222.13;5097813;27;45361;-55
2022/12/09 05:03:01;;;;;;;;;19.75;16.00;;;;;4.97;68.43;100217.94;5098053;27;45421;-55
2022/12/09 05:05:26;;;;;;;;;41.00;33.25;;;;;4.98;68.54;100222.25;5097698;27;45378;-52
2022/12/09 05:07:52;;;;;;;;;44.00;27.75;;;;;4.98;68.46;100224.88;5097672;27;45266;-54
2022/12/09 05:10:17;;;;;;;;;41.75;30.25;;;;;4.98;68.92;100224.06;5113544;27;45472;-52
2022/12/09 05:12:43;;;;;;;;;39.25;27.00;;;;;4.98;68.21;100224.88;5097895;27;45424;-54
2022/12/09 05:15:09;;;;;;;;;53.00;29.50;;;;;4.96;68.78;100225.97;5097509;27;46098;-53
2022/12/09 05:17:34;;;;;;;;;30.75;26.00;;;;;4.98;68.68;100226.69;5097041;27;45324;-52
2022/12/09 05:19:59;;;;;;;;;21.00;13.00;;;;;4.97;68.92;100220.59;5095677;27;45456;-52
2022/12/09 05:22:25;;;;;;;;;33.00;26.25;;;;;4.97;67.96;100219.72;5097942;27;45283;-53
2022/12/09 05:24:50;;;;;;;;;30.50;24.00;;;;;4.97;68.61;100225.00;5097511;27;47047;-52
2022/12/09 05:27:15;;;;;;;;;33.25;25.75;;;;;4.96;68.39;100228.59;5097498;27;45255;-52
2022/12/09 05:29:41;;;;;;;;;31.25;25.75;;;;;4.91;68.19;100225.50;5097695;27;45316;-51
2022/12/09 05:32:07;;;;;;;;;33.50;27.25;;;;;4.94;67.76;100228.72;5096598;27;45521;-51
2022/12/09 05:34:32;;;;;;;;;31.50;22.00;;;;;4.97;67.97;100235.53;5097609;27;45347;-54
2022/12/09 05:36:57;;;;;;;;;29.75;25.25;;;;;4.97;67.99;100230.25;5097212;27;45302;-53
2022/12/09 05:39:23;;;;;;;;;25.50;21.50;;;;;4.95;67.10;100232.19;5097456;27;45297;-52
2022/12/09 05:41:48;;;;;;;;;24.00;17.75;;;;;4.87;67.50;100230.16;5097823;27;45385;-53
2022/12/09 05:44:14;;;;;;;;;25.25;17.75;;;;;4.85;67.09;100232.09;5097092;27;46118;-54
2022/12/09 05:46:39;;;;;;;;;28.75;22.25;;;;;4.80;66.89;100238.69;5097118;27;45519;-52
2022/12/09 05:49:05;;;;;;;;;32.50;22.50;;;;;4.74;66.93;100240.00;5097026;27;45259;-53
2022/12/09 05:51:30;;;;;;;;;29.50;22.25;;;;;4.68;67.17;100230.81;5097154;27;45387;-54
2022/12/09 05:54:00;;;;;;;;;23.50;16.25;;;;;4.65;67.35;100238.13;5097257;27;46087;-51
2022/12/09 05:56:25;;;;;;;;;15.25;14.75;;;;;4.60;66.74;100229.75;5096885;27;45208;-52
2022/12/09 05:58:51;;;;;;;;;27.50;18.75;;;;;4.55;67.13;100238.00;5097000;27;45400;-54
2022/12/09 06:01:17;;;;;;;;;17.75;17.75;;;;;4.52;67.23;100240.03;5097586;27;45435;-54
2022/12/09 06:03:42;;;;;;;;;20.25;17.00;;;;;4.50;67.44;100240.97;5096923;27;46108;-54
2022/12/09 06:06:13;;;;;;;;;31.50;19.25;;;;;4.48;66.45;100240.28;5097093;27;45468;-53
2022/12/09 06:08:39;;;;;;;;;25.50;16.50;;;;;4.42;65.85;100239.91;5097255;27;45224;-52
2022/12/09 06:11:17;;;;;;;;;14.25;12.00;;;;;4.38;65.95;100246.34;5097138;27;45289;-53
2022/12/09 06:13:42;;;;;;;;;23.25;19.25;;;;;4.33;66.42;100244.09;5096738;27;47399;-52
2022/12/09 06:16:09;;;;;;;;;23.75;16.00;;;;;4.33;66.06;100256.41;5096751;27;45376;-54
2022/12/09 06:18:35;;;;;;;;;18.25;16.00;;;;;4.25;66.58;100252.56;5097022;27;45306;-53
2022/12/09 06:21:09;;;;;;;;;20.75;17.50;;;;;4.20;66.65;100267.06;5112913;27;45407;-52
2022/12/09 06:23:36;;;;;;;;;19.75;16.75;;;;;4.15;66.53;100267.41;5096646;27;45366;-53
2022/12/09 06:26:02;;;;;;;;;23.50;20.25;;;;;4.08;65.95;100268.00;5096565;27;45450;-57
2022/12/09 06:28:28;;;;;;;;;19.25;16.00;;;;;4.03;67.17;100264.88;5095647;27;45330;-51
2022/12/09 06:30:53;;;;;;;;;28.25;21.25;;;;;4.02;66.86;100269.31;5099359;27;45420;-53
2022/12/09 06:33:19;;;;;;;;;27.00;19.50;;;;;4.05;67.28;100271.72;5100290;27;45225;-54
2022/12/09 06:35:44;;;;;;;;;32.50;20.25;;;;;3.95;67.22;100260.19;5100080;27;45342;-54
2022/12/09 06:38:09;;;;;;;;;24.50;22.25;;;;;4.04;66.32;100277.06;5100082;27;45409;-54
2022/12/09 06:40:40;;;;;;;;;19.75;16.75;;;;;3.97;67.50;100263.56;5100573;27;45384;-54
2022/12/09 06:43:05;;;;;;;;;19.25;13.00;;;;;4.02;66.90;100264.03;5098455;27;46483;-54
2022/12/09 06:45:30;;;;;;;;;22.25;18.25;;;;;4.03;66.48;100267.50;5099969;27;45401;-54
2022/12/09 06:47:56;;;;;;;;;20.00;16.50;;;;;4.02;66.50;100268.47;5099857;27;45717;-52
2022/12/09 06:50:21;;;;;;;;;26.00;22.00;;;;;4.00;66.44;100271.19;5100041;27;45311;-52
2022/12/09 06:52:46;;;;;;;;;23.00;19.00;;;;;3.94;66.49;100269.03;5099947;27;46557;-53
2022/12/09 06:55:12;;;;;;;;;32.00;22.25;;;;;3.92;66.80;100265.72;5099761;27;45364;-53
2022/12/09 06:57:37;;;;;;;;;25.75;19.00;;;;;3.87;66.61;100266.03;5099771;27;45367;-54
2022/12/09 07:00:04;;;;;;;;;22.25;14.00;;;;;3.82;67.06;100264.69;5100081;27;45384;-53
2022/12/09 07:02:29;;;;;;;;;19.50;16.00;;;;;3.74;66.09;100266.09;5099649;27;45434;-55
2022/12/09 07:04:55;;;;;;;;;17.25;14.00;;;;;3.70;67.07;100271.72;5099737;27;45314;-56
2022/12/09 07:07:21;;;;;;;;;24.00;18.25;;;;;3.68;67.14;100271.00;5099715;27;45403;-55
2022/12/09 07:09:47;;;;;;;;;28.00;23.75;;;;;3.55;66.63;100252.66;5099820;27;45444;-51
2022/12/09 07:12:12;;;;;;;;;36.50;27.00;;;;;3.65;67.02;100268.59;5099337;27;46290;-53
2022/12/09 07:14:38;;;;;;;;;28.00;23.50;;;;;3.64;67.05;100272.19;5099471;27;45335;-55
2022/12/09 07:17:04;;;;;;;;;27.25;23.50;;;;;3.64;67.74;100272.19;5099632;27;45404;-56
2022/12/09 07:19:29;;;;;;;;;31.50;24.50;;;;;3.64;67.43;100273.00;5099652;27;45313;-54
2022/12/09 07:21:56;;;;;;;;;33.75;25.00;;;;;3.67;67.97;100274.59;5099334;27;46130;-52
2022/12/09 07:24:21;;;;;;;;;29.25;23.25;;;;;3.65;67.39;100273.84;5099401;27;45503;-56
2022/12/09 07:26:47;;;;;;;;;26.00;21.75;;;;;3.72;67.93;100290.88;5099493;27;45446;-52
2022/12/09 07:29:12;;;;;;;;;15.75;15.75;;;;;3.74;66.62;100286.31;5099834;27;45437;-54
2022/12/09 07:31:37;;;;;;;;;25.75;14.75;;;;;3.74;67.09;100289.78;5099299;27;46205;-55
2022/12/09 07:34:03;;;;;;;;;15.75;13.50;;;;;3.73;66.06;100289.91;5099336;27;45428;-50
2022/12/09 07:36:31;;;;;;;;;22.75;20.00;;;;;3.71;66.18;100290.03;5099256;27;45227;-51
2022/12/09 07:38:58;;;;;;;;;20.75;16.75;;;;;3.75;66.41;100293.28;5098056;27;45361;-53
2022/12/09 07:41:24;;;;;;;;;21.25;16.00;;;;;3.75;66.89;100288.84;5097968;27;46395;-53
2022/12/09 07:43:49;;;;;;;;;27.25;16.75;;;;;3.77;65.93;100288.72;5098878;27;45301;-53
2022/12/09 07:46:16;;;;;;;;;17.50;15.25;;;;;3.75;66.22;100288.84;5098993;27;45554;-54
2022/12/09 07:48:42;;;;;;;;;22.50;14.25;;;;;3.74;66.73;100291.56;5099160;27;45355;-54
2022/12/09 07:51:07;;;;;;;;;28.25;22.00;;;;;3.75;66.28;100291.47;5098755;27;46066;-53
2022/12/09 07:53:34;;;;;;;;;36.25;21.00;;;;;3.76;65.92;100297.59;5098800;27;45599;-53
2022/12/09 07:56:01;;;;;;;;;27.50;18.50;;;;;3.77;66.31;100295.78;5098883;27;45335;-54
2022/12/09 07:58:28;;;;;;;;;22.75;14.00;;;;;3.75;66.34;100302.00;5098824;27;45396;-54
2022/12/09 08:00:53;;;;;;;;;19.50;13.75;;;;;3.72;65.47;100296.97;5098759;27;45294;-52
2022/12/09 08:03:19;;;;;;;;;31.50;20.50;;;;;3.72;66.42;100307.47;5098617;27;45475;-54
2022/12/09 08:05:51;;;;;;;;;26.25;22.25;;;;;3.63;66.09;100296.81;5098710;27;45357;-53
2022/12/09 08:08:17;;;;;;;;;27.25;21.75;;;;;3.72;66.35;100307.47;5098978;27;45596;-54
2022/12/09 08:10:45;;;;;;;;;29.50;20.50;;;;;3.75;65.62;100302.00;5097817;27;47249;-53
2022/12/09 08:13:10;;;;;;;;;21.25;19.00;;;;;3.77;66.19;100295.78;5095597;27;45449;-54
2022/12/09 08:15:35;;;;;;;;;23.25;19.50;;;;;3.74;65.89;100295.03;5095609;27;45487;-50
2022/12/09 08:18:01;;;;;;;;;28.50;21.00;;;;;3.75;65.58;100293.28;5095128;27;45256;-53
2022/12/09 08:20:27;;;;;;;;;27.00;21.25;;;;;3.78;65.04;100300.09;5095288;27;46089;-53
2022/12/09 08:22:52;;;;;;;;;17.50;17.50;;;;;3.75;65.69;100296.75;5095094;27;45416;-52
2022/12/09 08:25:17;;;;;;;;;30.75;23.00;;;;;3.78;66.37;100300.91;5095990;27;45448;-54
2022/12/09 08:27:43;;;;;;;;;31.00;23.50;;;;;3.78;65.94;100305.34;5095829;27;45462;-54
2022/12/09 08:30:09;;;;;;;;;34.25;22.25;;;;;3.79;65.91;100301.75;5095356;27;46093;-52
2022/12/09 08:32:34;;;;;;;;;30.00;24.50;;;;;3.77;66.37;100303.69;5095562;27;45542;-54
2022/12/09 08:34:59;;;;;;;;;24.00;16.25;;;;;3.77;66.24;100298.41;5095222;27;45605;-53
2022/12/09 08:37:25;;;;;;;;;32.25;22.25;;;;;3.79;65.32;100305.22;5095734;27;45479;-52
2022/12/09 08:39:50;;;;;;;;;29.50;24.75;;;;;3.82;65.99;100302.38;5095233;27;45988;-53
2022/12/09 08:42:16;;;;;;;;;31.00;26.75;;;;;3.85;65.44;100306.56;5095362;27;45528;-55
2022/12/09 08:44:42;;;;;;;;;35.00;24.75;;;;;3.86;65.79;100306.44;5095735;27;45388;-54
2022/12/09 08:47:07;;;;;;;;;29.25;22.00;;;;;3.86;65.35;100308.25;5095263;27;45461;-54
2022/12/09 08:49:33;;;;;;;;;34.50;26.00;;;;;3.80;65.36;100303.47;5095021;27;46024;-54
2022/12/09 08:51:58;;;;;;;;;24.25;19.00;;;;;3.90;65.46;100321.06;5095210;27;45516;-52
2022/12/09 08:54:24;;;;;;;;;26.25;23.00;;;;;3.90;65.66;100317.59;5095045;27;45622;-50
2022/12/09 08:56:51;;;;;;;;;28.00;21.50;;;;;3.89;66.08;100314.13;5095226;27;45371;-51
2022/12/09 08:59:17;;;;;;;;;30.25;24.25;;;;;3.80;65.10;100304.28;5094697;27;47338;-54
2022/12/09 09:01:42;;;;;;;;;41.50;26.50;;;;;3.83;65.79;100311.09;5095011;27;45529;-51
2022/12/09 09:04:16;;;;;;;;;34.00;25.50;;;;;3.72;65.56;100301.38;5095083;27;46112;-53
2022/12/09 09:06:43;;;;;;;;;29.75;22.75;;;;;3.81;65.33;100316.50;5094929;27;45516;-51
2022/12/09 09:09:10;;;;;;;;;38.50;25.25;;;;;3.78;65.95;100318.50;5095084;27;45464;-51
2022/12/09 09:11:36;;;;;;;;;31.25;25.00;;;;;3.77;65.22;100315.03;5095120;27;45455;-53
2022/12/09 09:14:03;;;;;;;;;33.00;27.00;;;;;3.79;65.95;100317.53;5094679;27;45553;-50
2022/12/09 09:16:29;;;;;;;;;35.25;23.50;;;;;3.77;65.87;100320.28;5095097;27;45504;-50
2022/12/09 09:18:54;;;;;;;;;40.25;28.00;;;;;3.83;65.95;100316.38;5094574;27;46091;-49
2022/12/09 09:21:22;;;;;;;;;60.25;46.00;;;;;3.83;65.53;100313.72;5094784;27;45406;-52
2022/12/09 09:23:48;;;;;;;;;81.00;59.00;;;;;3.88;66.18;100319.50;5094423;27;45371;-53
2022/12/09 09:26:17;;;;;;;;;19.25;15.50;;;;;3.82;65.98;100307.63;5095105;27;45515;-51
2022/12/09 09:28:42;;;;;;;;;30.50;24.75;;;;;3.94;65.87;100322.50;5094531;27;46257;-51
2022/12/09 09:31:12;;;;;;;;;32.50;25.75;;;;;3.83;66.48;100292.69;5094647;27;45375;-50
2022/12/09 09:33:38;;;;;;;;;31.00;28.50;;;;;4.01;66.41;100315.00;5094675;27;45541;-55
2022/12/09 09:36:05;;;;;;;;;32.00;28.75;;;;;4.08;66.22;100323.25;5095295;27;45452;-52
2022/12/09 09:38:31;;;;;;;;;40.75;29.00;;;;;4.10;65.35;100319.56;5094453;27;46865;-54
2022/12/09 09:40:59;;;;;;;;;35.75;31.50;;;;;4.15;65.85;100313.97;5094473;27;45456;-52
2022/12/09 09:43:33;;;;;;;;;35.50;28.00;;;;;4.19;65.91;100320.66;5094566;27;45472;-51
2022/12/09 09:45:58;;;;;;;;;34.50;24.75;;;;;4.26;65.60;100327.16;5095192;27;45537;-51
2022/12/09 09:48:29;;;;;;;;;37.25;24.50;;;;;4.25;65.70;100313.13;5094519;27;45981;-52
2022/12/09 09:51:05;;;;;;;;;21.00;17.00;;;;;4.39;64.82;100327.91;5095614;27;45514;-49
2022/12/09 09:53:33;;;;;;;;;33.00;24.75;;;;;4.42;64.40;100327.66;5095087;27;45491;-55
2022/12/09 09:56:13;;;;;;;;;26.50;24.00;;;;;5.05;63.85;100320.13;5095318;27;45452;-51
2022/12/09 09:58:47;;;;;;;;;32.75;27.00;;;;;5.24;62.91;100317.69;5094476;27;47477;-54
2022/12/09 10:01:16;;;;;;;;;40.00;28.75;;;;;5.26;62.18;100301.75;5094656;27;45536;-51
2022/12/09 10:03:50;;;;;;;;;27.25;21.75;;;;;5.38;62.64;100313.94;5094716;27;45513;-50
2022/12/09 10:06:31;;;;;;;;;38.75;29.75;;;;;5.99;62.62;100310.75;5097853;27;45570;-53
2022/12/09 10:09:10;;;;;;;;;64.25;46.00;;;;;5.68;61.68;100307.13;5097940;27;47303;-54
2022/12/09 10:11:44;;;;;;;;;35.00;27.50;;;;;5.49;61.90;100302.53;5097864;27;45878;-52
2022/12/09 10:14:21;;;;;;;;;39.50;28.75;;;;;5.45;62.40;100298.47;5097589;27;45850;-52
2022/12/09 10:17:03;;;;;;;;;28.00;27.00;;;;;6.02;61.74;100292.00;5097791;27;45362;-51
2022/12/09 10:19:35;;;;;;;;;39.75;30.00;;;;;6.44;60.51;100287.53;5097503;27;46903;-50
2022/12/09 10:22:36;;;;;;;;;36.50;33.25;;;;;6.39;60.87;100295.03;5097547;27;45598;-51
2022/12/09 10:25:15;;;;;;;;;28.50;25.00;;;;;6.30;60.63;100294.97;5034171;28;45551;-50
2022/12/09 10:27:49;;;;;;;;;43.50;34.75;;;;;6.16;60.64;100296.16;5034213;28;45439;-51
2022/12/09 10:30:17;;;;;;;;;33.75;29.75;;;;;6.07;60.72;100292.47;5034130;28;46440;-51
2022/12/09 10:32:43;;;;;;;;;44.00;30.75;;;;;5.98;60.74;100290.59;5032187;28;45517;-51
2022/12/09 10:35:15;;;;;;;;;47.00;34.00;;;;;5.94;61.10;100282.09;5034214;28;45538;-48
2022/12/09 10:37:40;;;;;;;;;38.75;28.00;;;;;5.99;60.89;100281.72;5034453;28;45550;-52
2022/12/09 10:40:08;;;;;;;;;35.50;29.00;;;;;6.08;60.54;100280.94;5033911;28;46209;-51
2022/12/09 10:45:29;;;;;;;;;39.00;28.75;;;;;6.75;59.71;100259.31;5033943;28;45473;-52
2022/12/09 10:47:54;;;;;;;;;29.00;27.50;;;;;6.77;59.40;100266.25;5031922;28;45411;-54
2022/12/09 10:50:33;;;;;;;;;36.75;32.75;;;;;6.61;59.37;100251.72;5033771;28;46231;-51
2022/12/09 10:53:12;;;;;;;;;51.75;31.75;;;;;7.02;58.52;100247.25;5033780;28;45544;-52
2022/12/09 10:55:41;;;;;;;;;38.50;30.00;;;;;7.24;57.51;100265.53;5033961;28;45423;-53
2022/12/09 10:58:18;;;;;;;;;45.00;34.50;;;;;7.13;58.38;100270.97;5033933;28;45485;-54
2022/12/09 11:00:57;;;;;;;;;36.50;32.25;;;;;6.89;58.34;100260.72;5049321;27;46179;-53
2022/12/09 11:03:44;;;;;;;;;43.75;31.50;;;;;7.37;57.80;100257.34;5096487;27;45621;-53
2022/12/09 11:06:19;;;;;;;;;37.75;33.25;;;;;8.14;56.43;100266.22;5081950;27;46457;-52
2022/12/09 11:08:55;;;;;;;;;45.75;37.25;;;;;8.59;54.65;100255.78;5097055;27;45383;-53
2022/12/09 11:11:57;;;;;;;;;36.75;27.75;;;;;8.36;54.80;100246.50;5095263;27;47177;-50
2022/12/09 11:14:24;;;;;;;;;48.75;34.00;;;;;8.50;55.25;100243.41;5032206;28;45399;-53
2022/12/09 11:16:59;;;;;;;;;40.00;33.50;;;;;8.70;54.57;100238.88;5034969;28;45534;-52
2022/12/09 11:19:33;;;;;;;;;48.25;34.00;;;;;8.21;54.69;100239.00;5036474;28;45298;-51
2022/12/09 11:22:21;;;;;;;;;43.25;39.00;;;;;7.85;55.82;100247.75;5035847;28;45484;-50
2022/12/09 11:24:48;;;;;;;;;48.00;35.50;;;;;7.73;55.82;100253.16;5036242;28;45294;-50